Time;durP1;ratioP1;P1;durP2;ratioP2;P2;SDS_P1;SDS_P2;PMS_P1;PMS_P2;Temp;Humidity;BMP_temperature;BMP_pressure;BME280_temperature;BME280_humidity;BME280_pressure;Samples;Min_cycle;Max_cycle;Signal;HPM_P1;HPM_P2
2021/07/15 00:00:51;;;;;;;145.30;65.55;;;18.90;99.90;;;;;;5019861;28;20026;-71
2021/07/15 00:03:23;;;;;;;153.05;66.72;;;18.90;99.90;;;;;;5018708;28;20058;-71
2021/07/15 00:05:50;;;;;;;149.68;67.60;;;18.90;99.90;;;;;;5026910;28;20037;-70
2021/07/15 00:08:18;;;;;;;141.55;65.90;;;18.90;99.90;;;;;;5021988;28;20030;-71
2021/07/15 00:10:52;;;;;;;147.30;65.47;;;18.90;99.90;;;;;;5018603;28;20128;-71
2021/07/15 00:13:17;;;;;;;149.27;63.92;;;18.90;99.90;;;;;;5029007;28;20515;-71
2021/07/15 00:15:47;;;;;;;136.68;62.83;;;18.90;99.90;;;;;;5020309;28;20025;-71
2021/07/15 00:18:14;;;;;;;137.35;61.33;;;18.80;99.90;;;;;;5029514;28;20182;-71
2021/07/15 00:20:45;;;;;;;143.48;61.15;;;18.90;99.90;;;;;;5027146;28;20053;-71
2021/07/15 00:23:12;;;;;;;127.35;61.03;;;18.80;99.90;;;;;;5029841;28;20030;-71
2021/07/15 00:25:39;;;;;;;128.02;60.85;;;18.80;99.90;;;;;;5019972;28;20491;-71
2021/07/15 00:28:05;;;;;;;132.02;58.03;;;18.90;99.90;;;;;;5024540;28;20065;-71
2021/07/15 00:30:30;;;;;;;139.52;59.53;;;18.80;99.90;;;;;;5019539;28;20057;-71
2021/07/15 00:32:56;;;;;;;134.73;59.90;;;18.80;99.90;;;;;;5031333;28;20030;-70
2021/07/15 00:35:22;;;;;;;136.60;60.88;;;18.80;99.90;;;;;;5026874;28;20033;-70
2021/07/15 00:37:47;;;;;;;136.93;61.05;;;18.80;99.90;;;;;;5026973;28;20092;-70
2021/07/15 00:40:16;;;;;;;137.07;60.22;;;18.80;99.90;;;;;;5020929;28;20052;-70
2021/07/15 00:42:42;;;;;;;142.48;61.55;;;18.70;99.90;;;;;;5026530;28;20076;-71
2021/07/15 00:45:10;;;;;;;138.38;63.38;;;18.80;99.90;;;;;;5015724;28;20033;-70
2021/07/15 00:47:35;;;;;;;148.73;63.72;;;18.70;99.90;;;;;;5028715;28;20443;-70
2021/07/15 00:50:04;;;;;;;153.48;65.82;;;18.70;99.90;;;;;;5023526;28;20021;-70
2021/07/15 00:52:29;;;;;;;165.52;68.10;;;18.70;99.90;;;;;;5033172;28;20044;-70
2021/07/15 00:54:55;;;;;;;166.45;68.32;;;18.70;99.90;;;;;;5033976;28;20022;-71
2021/07/15 00:57:21;;;;;;;163.18;67.82;;;18.70;99.90;;;;;;5028491;28;20072;-71
2021/07/15 00:59:47;;;;;;;162.00;66.72;;;18.70;99.90;;;;;;5034770;28;20044;-70
2021/07/15 01:02:12;;;;;;;171.80;69.32;;;18.70;99.90;;;;;;5034327;28;20499;-70
2021/07/15 01:04:38;;;;;;;157.25;64.03;;;18.60;99.90;;;;;;5016595;28;20141;-69
2021/07/15 01:07:04;;;;;;;157.20;66.00;;;18.70;99.90;;;;;;5034138;28;20034;-71
2021/07/15 01:09:30;;;;;;;157.68;63.72;;;18.70;99.90;;;;;;5023365;28;20034;-71
2021/07/15 01:12:16;;;;;;;173.20;65.45;;;18.60;99.90;;;;;;5015357;28;20393;-71
2021/07/15 01:15:06;;;;;;;154.27;63.53;;;18.70;99.90;;;;;;5015257;28;20034;-70
2021/07/15 01:17:56;;;;;;;138.00;62.55;;;18.70;99.90;;;;;;5015043;28;20042;-71
2021/07/15 01:20:57;;;;;;;143.80;61.83;;;18.60;99.90;;;;;;5027403;28;20028;-71
2021/07/15 01:23:32;;;;;;;148.35;63.58;;;18.60;99.90;;;;;;5026257;28;20025;-71
2021/07/15 01:26:31;;;;;;;150.73;63.85;;;18.60;99.90;;;;;;5034367;28;20040;-71
2021/07/15 01:29:25;;;;;;;151.10;67.72;;;18.60;99.90;;;;;;5020599;28;20033;-71
2021/07/15 01:31:55;;;;;;;149.05;64.95;;;18.50;99.90;;;;;;5020983;28;20120;-70
2021/07/15 01:34:22;;;;;;;154.63;66.57;;;18.50;99.90;;;;;;5019587;28;20021;-70
2021/07/15 01:36:52;;;;;;;151.82;65.22;;;18.50;99.90;;;;;;5020564;28;20357;-71
2021/07/15 01:39:20;;;;;;;155.07;62.72;;;18.50;99.90;;;;;;5023094;28;20372;-71
2021/07/15 01:41:48;;;;;;;146.63;58.47;;;18.50;99.90;;;;;;5015929;28;20033;-70
2021/07/15 01:44:27;;;;;;;132.70;56.67;;;18.50;99.90;;;;;;5027672;28;20520;-70
2021/07/15 01:46:53;;;;;;;135.23;56.42;;;18.50;99.90;;;;;;5014626;28;20370;-70
2021/07/15 01:49:19;;;;;;;124.35;56.05;;;18.50;99.90;;;;;;5019756;28;20108;-71
2021/07/15 01:51:46;;;;;;;144.07;58.70;;;18.50;99.90;;;;;;5025933;28;20032;-71
2021/07/15 01:54:12;;;;;;;137.55;56.72;;;18.50;99.90;;;;;;5032560;28;20025;-72
2021/07/15 01:56:40;;;;;;;151.80;59.80;;;18.40;99.90;;;;;;5019977;28;20159;-72
2021/07/15 01:59:13;;;;;;;153.10;58.28;;;18.40;99.90;;;;;;5018711;28;20029;-71
2021/07/15 02:01:39;;;;;;;166.40;60.47;;;18.40;99.90;;;;;;5033795;28;20388;-76
2021/07/15 02:04:06;;;;;;;131.85;56.63;;;18.40;99.90;;;;;;5024771;28;20053;-73
2021/07/15 02:06:33;;;;;;;145.15;56.90;;;18.40;99.90;;;;;;5031570;28;20044;-72
2021/07/15 02:09:00;;;;;;;145.68;54.42;;;18.30;99.90;;;;;;5029840;28;20114;-71
2021/07/15 02:11:33;;;;;;;133.80;51.75;;;18.30;99.90;;;;;;5033643;28;20028;-71
2021/07/15 02:14:03;;;;;;;130.55;53.55;;;18.30;99.90;;;;;;5029243;28;20460;-72
2021/07/15 02:16:31;;;;;;;126.95;53.30;;;18.30;99.90;;;;;;5033418;28;20492;-71
2021/07/15 02:18:58;;;;;;;128.88;54.85;;;18.30;99.90;;;;;;5017306;28;20041;-72
2021/07/15 02:21:24;;;;;;;127.68;54.53;;;18.30;99.90;;;;;;5031643;28;20484;-72
2021/07/15 02:23:49;;;;;;;127.80;55.42;;;18.30;99.90;;;;;;5031319;28;20491;-71
2021/07/15 02:26:15;;;;;;;135.00;57.20;;;18.30;99.90;;;;;;5021626;28;20032;-71
2021/07/15 02:28:41;;;;;;;156.00;59.33;;;18.30;99.90;;;;;;5024664;28;20487;-72
2021/07/15 02:31:15;;;;;;;144.50;58.67;;;18.30;99.90;;;;;;5033105;28;20041;-71
2021/07/15 02:33:47;;;;;;;147.15;58.60;;;18.30;99.90;;;;;;5032604;28;20029;-72
2021/07/15 02:36:13;;;;;;;141.45;58.08;;;18.30;99.90;;;;;;5031905;28;20053;-72
2021/07/15 02:38:40;;;;;;;155.65;60.42;;;18.30;99.90;;;;;;5020745;28;20504;-71
2021/07/15 02:41:06;;;;;;;155.50;61.13;;;18.30;99.90;;;;;;5021121;28;20025;-73
2021/07/15 02:43:32;;;;;;;170.13;64.28;;;18.30;99.90;;;;;;5020143;28;20488;-72
2021/07/15 02:45:57;;;;;;;171.20;65.82;;;18.30;99.90;;;;;;5046652;28;20025;-72
2021/07/15 02:48:23;;;;;;;162.18;65.72;;;18.30;99.90;;;;;;5021418;28;20026;-72
2021/07/15 02:50:49;;;;;;;184.68;63.70;;;18.30;99.90;;;;;;5026818;28;20495;-72
2021/07/15 02:53:15;;;;;;;190.40;68.88;;;18.30;99.90;;;;;;5033027;28;20032;-72
2021/07/15 02:55:48;;;;;;;169.90;64.60;;;18.30;99.90;;;;;;5029860;28;20175;-72
2021/07/15 02:58:23;;;;;;;171.73;64.85;;;18.30;99.90;;;;;;5023004;28;20033;-72
2021/07/15 03:01:05;;;;;;;173.73;62.55;;;18.30;99.90;;;;;;5019772;28;20543;-72
2021/07/15 03:03:37;;;;;;;163.35;62.63;;;18.30;99.90;;;;;;5017882;28;20029;-73
2021/07/15 03:06:14;;;;;;;157.25;62.25;;;18.30;99.90;;;;;;5018156;28;20099;-72
2021/07/15 03:08:59;;;;;;;147.30;60.40;;;18.30;99.90;;;;;;5028549;28;20038;-72
2021/07/15 03:11:41;;;;;;;153.20;57.72;;;18.30;99.90;;;;;;5028154;28;20567;-72
2021/07/15 03:14:08;;;;;;;156.50;59.28;;;18.30;99.90;;;;;;5029148;28;20108;-72
2021/07/15 03:16:37;;;;;;;156.50;58.63;;;18.30;99.90;;;;;;5026006;28;20480;-72
2021/07/15 03:19:05;;;;;;;155.13;57.72;;;18.30;99.90;;;;;;5019985;28;20026;-72
2021/07/15 03:21:32;;;;;;;154.02;54.60;;;18.30;99.90;;;;;;5027721;28;20452;-72
2021/07/15 03:23:59;;;;;;;142.35;54.17;;;18.30;99.90;;;;;;5030238;28;20022;-72
2021/07/15 03:26:26;;;;;;;132.65;51.38;;;18.30;99.90;;;;;;5032082;28;20030;-72
2021/07/15 03:28:53;;;;;;;117.80;47.30;;;18.30;99.90;;;;;;5018194;28;20029;-72
2021/07/15 03:31:21;;;;;;;122.35;46.90;;;18.30;99.90;;;;;;5026538;28;20501;-71
2021/07/15 03:33:47;;;;;;;111.93;46.05;;;18.30;99.90;;;;;;5030470;28;20022;-71
2021/07/15 03:36:13;;;;;;;108.55;43.60;;;18.30;99.90;;;;;;5018693;28;20034;-71
2021/07/15 03:38:41;;;;;;;102.57;43.20;;;18.20;99.90;;;;;;5024634;28;20373;-71
2021/07/15 03:41:09;;;;;;;95.47;39.55;;;18.20;99.90;;;;;;5027041;28;20035;-71
2021/07/15 03:43:36;;;;;;;102.60;42.63;;;18.20;99.90;;;;;;5033448;28;20033;-71
2021/07/15 03:46:03;;;;;;;93.88;41.08;;;18.20;99.90;;;;;;5027855;28;20100;-72
2021/07/15 03:48:30;;;;;;;88.43;39.22;;;18.20;99.90;;;;;;5019528;28;20029;-71
2021/07/15 03:51:04;;;;;;;94.90;39.50;;;18.20;99.90;;;;;;5032177;28;20025;-72
2021/07/15 03:53:31;;;;;;;96.70;39.78;;;18.20;99.90;;;;;;5021352;28;20487;-72
2021/07/15 03:55:58;;;;;;;86.70;37.35;;;18.20;99.90;;;;;;5036226;28;20064;-72
2021/07/15 03:58:28;;;;;;;87.65;37.03;;;18.20;99.90;;;;;;5030001;28;20504;-73
2021/07/15 04:01:05;;;;;;;82.18;35.97;;;18.10;99.90;;;;;;5026391;28;20079;-74
2021/07/15 04:03:33;;;;;;;84.53;36.67;;;18.20;99.90;;;;;;5027526;28;20032;-72
2021/07/15 04:06:01;;;;;;;80.28;34.20;;;18.10;99.90;;;;;;5025472;28;20034;-73
2021/07/15 04:08:27;;;;;;;84.45;34.88;;;18.10;99.90;;;;;;5029433;28;20087;-73
2021/07/15 04:10:56;;;;;;;79.68;34.80;;;18.20;99.90;;;;;;5034474;28;20439;-73
2021/07/15 04:13:25;;;;;;;78.88;35.78;;;18.20;99.90;;;;;;5025375;28;20026;-73
2021/07/15 04:15:53;;;;;;;79.50;34.22;;;18.10;99.90;;;;;;5025004;28;20476;-72
2021/07/15 04:18:26;;;;;;;77.88;35.75;;;18.10;99.90;;;;;;5031105;28;20408;-72
2021/07/15 04:20:52;;;;;;;75.30;33.10;;;18.10;99.90;;;;;;5027666;28;20567;-73
2021/07/15 04:23:19;;;;;;;72.68;32.17;;;18.10;99.90;;;;;;5023128;28;20113;-72
2021/07/15 04:25:47;;;;;;;75.13;32.58;;;18.10;99.90;;;;;;5023484;28;20026;-72
2021/07/15 04:28:14;;;;;;;74.03;32.28;;;18.10;99.90;;;;;;5025122;28;20472;-72
2021/07/15 04:30:43;;;;;;;68.78;31.10;;;18.20;99.90;;;;;;5026290;28;20577;-72
2021/07/15 04:33:10;;;;;;;70.32;31.67;;;18.10;99.90;;;;;;5032512;28;20041;-73
2021/07/15 04:35:36;;;;;;;60.92;29.10;;;18.10;99.90;;;;;;5033170;28;20030;-73
2021/07/15 04:38:03;;;;;;;59.53;29.10;;;18.10;99.90;;;;;;5030811;28;20034;-73
2021/07/15 04:40:31;;;;;;;67.80;29.30;;;18.10;99.90;;;;;;5033461;28;20022;-73
2021/07/15 04:43:17;;;;;;;69.22;29.80;;;18.10;99.90;;;;;;5029050;28;20484;-73
2021/07/15 04:45:44;;;;;;;57.60;27.38;;;18.10;99.90;;;;;;5026538;28;20050;-72
2021/07/15 04:48:11;;;;;;;63.80;28.50;;;18.10;99.90;;;;;;5031403;28;20037;-72
2021/07/15 04:50:38;;;;;;;71.47;30.25;;;18.10;99.90;;;;;;5033456;28;20035;-72
2021/07/15 04:53:08;;;;;;;58.67;28.67;;;18.10;99.90;;;;;;5027818;28;20029;-72
2021/07/15 04:55:34;;;;;;;65.95;27.95;;;18.10;99.90;;;;;;5029073;28;20103;-72
2021/07/15 04:58:01;;;;;;;61.58;29.02;;;18.10;99.90;;;;;;5030756;28;20029;-72
2021/07/15 05:00:28;;;;;;;58.90;28.38;;;18.10;99.90;;;;;;5023124;28;20025;-72
2021/07/15 05:03:08;;;;;;;61.00;27.17;;;18.10;99.90;;;;;;5026885;28;20039;-72
2021/07/15 05:05:34;;;;;;;67.22;29.65;;;18.10;99.90;;;;;;5037956;28;20029;-72
2021/07/15 05:07:59;;;;;;;69.47;32.42;;;18.20;99.90;;;;;;5024689;28;20384;-73
2021/07/15 05:10:25;;;;;;;72.50;31.00;;;18.20;99.90;;;;;;5033329;28;20037;-71
2021/07/15 05:12:51;;;;;;;76.05;32.45;;;18.10;99.90;;;;;;5027022;28;20033;-71
2021/07/15 05:15:16;;;;;;;72.70;31.20;;;18.20;99.90;;;;;;5025741;28;20030;-72
2021/07/15 05:17:42;;;;;;;74.97;32.58;;;18.20;99.90;;;;;;5024186;28;20117;-71
2021/07/15 05:20:08;;;;;;;78.18;34.00;;;18.20;99.90;;;;;;5032920;28;20083;-72
2021/07/15 05:22:35;;;;;;;72.53;33.17;;;18.20;99.90;;;;;;5028604;28;20030;-71
2021/07/15 05:25:00;;;;;;;86.15;35.95;;;18.20;99.90;;;;;;5025117;28;20025;-71
2021/07/15 05:27:26;;;;;;;79.45;33.90;;;18.20;99.90;;;;;;5024238;28;20033;-71
2021/07/15 05:29:51;;;;;;;79.82;34.50;;;18.20;99.90;;;;;;5027671;28;20029;-71
2021/07/15 05:32:17;;;;;;;79.70;34.72;;;18.20;99.90;;;;;;5024767;28;20033;-71
2021/07/15 05:34:42;;;;;;;71.20;32.30;;;18.20;99.90;;;;;;5023219;28;20068;-71
2021/07/15 05:37:08;;;;;;;77.10;34.20;;;18.20;99.90;;;;;;5023730;28;20029;-70
2021/07/15 05:39:35;;;;;;;73.18;31.85;;;18.20;99.90;;;;;;5025831;28;20029;-71
2021/07/15 05:42:00;;;;;;;74.72;31.73;;;18.20;99.90;;;;;;5017670;28;20079;-71
2021/07/15 05:44:26;;;;;;;75.30;32.88;;;18.30;99.90;;;;;;5023799;28;20026;-70
2021/07/15 05:46:51;;;;;;;82.00;37.33;;;18.30;99.90;;;;;;5024561;28;20082;-70
2021/07/15 05:49:17;;;;;;;88.03;39.58;;;18.30;99.90;;;;;;5038818;28;20412;-73
2021/07/15 05:51:46;;;;;;;93.78;39.20;;;18.30;99.90;;;;;;5026456;28;20025;-73
2021/07/15 05:54:13;;;;;;;96.72;43.15;;;18.20;99.90;;;;;;5023001;28;20029;-71
2021/07/15 05:56:39;;;;;;;104.60;42.22;;;18.20;99.90;;;;;;5023242;28;20029;-71
2021/07/15 05:59:04;;;;;;;102.85;43.63;;;18.20;99.90;;;;;;5020353;28;20079;-70
2021/07/15 06:01:30;;;;;;;115.03;43.95;;;18.20;99.90;;;;;;5025807;28;20480;-71
2021/07/15 06:03:55;;;;;;;119.20;46.15;;;18.20;99.90;;;;;;5030561;28;20034;-72
2021/07/15 06:06:21;;;;;;;121.65;46.70;;;18.20;99.90;;;;;;5028783;28;20038;-73
2021/07/15 06:08:47;;;;;;;120.90;46.72;;;18.20;99.90;;;;;;5033561;28;20044;-71
2021/07/15 06:11:13;;;;;;;126.10;46.95;;;18.10;99.90;;;;;;5030760;28;20060;-72
2021/07/15 06:13:38;;;;;;;130.77;48.60;;;18.20;99.90;;;;;;5026480;28;20037;-72
2021/07/15 06:16:04;;;;;;;123.63;47.58;;;18.10;99.90;;;;;;5033163;28;20025;-71
2021/07/15 06:18:30;;;;;;;129.85;50.60;;;18.10;99.90;;;;;;5028739;28;20529;-72
2021/07/15 06:20:55;;;;;;;127.28;49.67;;;18.10;99.90;;;;;;5025065;28;20542;-72
2021/07/15 06:23:21;;;;;;;136.32;50.92;;;18.10;99.90;;;;;;5031706;28;20095;-70
2021/07/15 06:25:46;;;;;;;139.57;50.58;;;18.10;99.90;;;;;;5031540;28;20033;-72
2021/07/15 06:28:12;;;;;;;128.18;48.78;;;18.10;99.90;;;;;;5027463;28;20033;-71
2021/07/15 06:30:38;;;;;;;145.60;52.42;;;18.20;99.90;;;;;;5045951;28;20029;-72
2021/07/15 06:33:03;;;;;;;126.22;49.28;;;18.20;99.90;;;;;;5023919;28;20033;-72
2021/07/15 06:35:29;;;;;;;135.00;50.90;;;18.20;99.90;;;;;;5029437;28;20033;-72
2021/07/15 06:37:55;;;;;;;152.77;55.95;;;18.20;99.90;;;;;;5028016;28;20048;-71
2021/07/15 06:40:21;;;;;;;155.20;55.58;;;18.20;99.90;;;;;;5032501;28;20029;-72
2021/07/15 06:42:47;;;;;;;140.27;55.03;;;18.20;99.90;;;;;;5022213;28;20037;-71
2021/07/15 06:45:14;;;;;;;134.48;51.08;;;18.20;99.90;;;;;;5028544;28;20083;-71
2021/07/15 06:47:39;;;;;;;146.93;53.60;;;18.20;99.90;;;;;;5031856;28;20034;-73
2021/07/15 06:50:08;;;;;;;127.28;49.97;;;18.20;99.90;;;;;;5038848;28;20079;-73
2021/07/15 06:52:34;;;;;;;128.68;47.65;;;18.20;99.90;;;;;;5028133;28;20032;-73
2021/07/15 06:55:01;;;;;;;133.57;51.63;;;18.20;99.90;;;;;;5031552;28;20060;-71
2021/07/15 06:57:28;;;;;;;128.82;48.60;;;18.20;99.90;;;;;;5032323;28;20496;-71
2021/07/15 06:59:54;;;;;;;123.28;49.30;;;18.20;99.90;;;;;;5030941;28;20380;-71
2021/07/15 07:02:19;;;;;;;129.18;48.17;;;18.20;99.90;;;;;;5030487;28;20029;-71
2021/07/15 07:04:45;;;;;;;113.72;45.40;;;18.20;99.90;;;;;;5023549;28;20033;-72
2021/07/15 07:07:10;;;;;;;110.22;41.63;;;18.20;99.90;;;;;;5027299;28;20021;-71
2021/07/15 07:09:36;;;;;;;95.80;38.53;;;18.20;99.90;;;;;;5015678;28;20041;-73
2021/07/15 07:12:02;;;;;;;97.10;37.13;;;18.10;99.90;;;;;;5028655;28;20512;-72
2021/07/15 07:14:27;;;;;;;102.30;37.85;;;18.10;99.90;;;;;;5025988;28;20111;-71
2021/07/15 07:16:53;;;;;;;82.47;34.10;;;18.10;99.90;;;;;;5031031;28;20042;-71
2021/07/15 07:19:18;;;;;;;88.10;35.90;;;18.10;99.90;;;;;;5034345;28;20040;-72
2021/07/15 07:21:44;;;;;;;89.60;34.65;;;18.10;99.90;;;;;;5017031;28;20033;-72
2021/07/15 07:24:10;;;;;;;84.20;35.28;;;18.10;99.90;;;;;;5036791;28;20060;-71
2021/07/15 07:26:36;;;;;;;86.32;36.45;;;18.10;99.90;;;;;;5032766;28;20057;-72
2021/07/15 07:29:02;;;;;;;83.53;35.13;;;18.10;99.90;;;;;;5034531;28;20116;-72
2021/07/15 07:31:28;;;;;;;93.28;36.25;;;18.10;99.90;;;;;;5033843;28;20453;-72
2021/07/15 07:33:54;;;;;;;89.20;35.40;;;18.10;99.90;;;;;;5033016;28;20112;-72
2021/07/15 07:36:19;;;;;;;87.85;36.35;;;18.10;99.90;;;;;;5032966;28;20033;-72
2021/07/15 07:38:45;;;;;;;90.68;37.10;;;18.10;99.90;;;;;;5035044;28;20029;-71
2021/07/15 07:41:10;;;;;;;87.63;35.22;;;18.10;99.90;;;;;;5035067;28;20025;-72
2021/07/15 07:43:37;;;;;;;87.80;37.10;;;18.10;99.90;;;;;;5034938;28;20030;-71
2021/07/15 07:46:03;;;;;;;98.80;37.63;;;18.10;99.90;;;;;;5032114;28;20026;-71
2021/07/15 07:48:29;;;;;;;85.95;34.78;;;18.20;99.90;;;;;;5022553;28;20036;-71
2021/07/15 07:50:57;;;;;;;83.32;34.92;;;18.10;99.90;;;;;;5032656;28;20017;-71
2021/07/15 07:53:24;;;;;;;83.85;33.90;;;18.20;99.90;;;;;;5033079;28;20021;-72
2021/07/15 07:55:49;;;;;;;88.47;35.85;;;18.20;99.90;;;;;;5034896;28;20025;-71
2021/07/15 07:58:15;;;;;;;77.10;32.85;;;18.20;99.90;;;;;;5036334;28;20071;-71
2021/07/15 08:00:40;;;;;;;74.18;32.70;;;18.20;99.90;;;;;;5034417;28;20029;-71
2021/07/15 08:03:06;;;;;;;75.07;33.83;;;18.20;99.90;;;;;;5035182;28;20033;-71
2021/07/15 08:05:34;;;;;;;88.88;36.10;;;18.20;99.90;;;;;;5036113;28;20025;-71
2021/07/15 08:08:00;;;;;;;91.47;38.42;;;18.10;99.90;;;;;;5032843;28;20033;-71
2021/07/15 08:10:27;;;;;;;94.53;39.15;;;18.00;99.90;;;;;;5032516;28;20603;-71
2021/07/15 08:12:54;;;;;;;95.57;40.03;;;18.00;99.90;;;;;;5024101;28;20025;-70
2021/07/15 08:15:19;;;;;;;98.60;39.67;;;18.00;99.90;;;;;;5034405;28;20079;-71
2021/07/15 08:17:45;;;;;;;89.03;38.30;;;18.00;99.90;;;;;;5034790;28;20439;-71
2021/07/15 08:20:11;;;;;;;90.55;38.22;;;18.00;99.90;;;;;;5034414;28;20099;-71
2021/07/15 08:22:38;;;;;;;97.47;39.28;;;18.10;99.90;;;;;;5033643;28;20507;-71
2021/07/15 08:25:05;;;;;;;96.90;39.22;;;18.10;99.90;;;;;;5032595;28;20041;-71
2021/07/15 08:27:30;;;;;;;91.55;39.13;;;18.20;99.90;;;;;;5032257;28;20040;-71
2021/07/15 08:29:56;;;;;;;87.30;36.60;;;18.30;99.90;;;;;;5033672;28;20026;-71
2021/07/15 08:32:22;;;;;;;81.72;35.28;;;18.40;99.90;;;;;;5034041;28;20103;-71
2021/07/15 08:34:48;;;;;;;86.05;35.15;;;18.30;99.90;;;;;;5032996;28;20422;-71
2021/07/15 08:37:14;;;;;;;76.20;34.70;;;18.30;99.90;;;;;;5034482;28;20030;-71
2021/07/15 08:39:39;;;;;;;79.40;35.28;;;18.30;99.90;;;;;;5035160;28;20379;-71
2021/07/15 08:42:08;;;;;;;75.15;33.22;;;18.20;99.90;;;;;;5032300;28;20523;-69
2021/07/15 08:44:34;;;;;;;79.47;37.20;;;18.10;99.90;;;;;;5033288;28;20502;-72
2021/07/15 08:47:01;;;;;;;89.60;37.95;;;18.10;99.90;;;;;;5035634;28;20065;-73
2021/07/15 08:49:27;;;;;;;90.18;38.58;;;18.00;99.90;;;;;;5030551;28;20026;-72
2021/07/15 08:51:53;;;;;;;99.35;38.50;;;18.00;99.90;;;;;;5035231;28;20018;-72
2021/07/15 08:54:21;;;;;;;104.35;40.25;;;17.90;99.90;;;;;;5033668;28;20033;-73
2021/07/15 08:56:47;;;;;;;98.20;40.75;;;17.90;99.90;;;;;;5033295;28;20090;-72
2021/07/15 08:59:17;;;;;;;106.53;42.33;;;17.90;99.90;;;;;;5034506;28;20025;-73
2021/07/15 09:01:47;;;;;;;108.90;43.72;;;17.90;99.90;;;;;;5032951;28;20029;-72
2021/07/15 09:04:14;;;;;;;122.40;45.05;;;17.90;99.90;;;;;;5033863;28;20026;-72
2021/07/15 09:06:41;;;;;;;112.30;47.88;;;17.90;99.90;;;;;;5045213;28;20067;-71
2021/07/15 09:09:08;;;;;;;116.70;44.88;;;17.90;99.90;;;;;;5033244;28;20123;-72
2021/07/15 09:11:33;;;;;;;123.28;46.78;;;17.90;99.90;;;;;;5032290;28;20032;-71
2021/07/15 09:13:59;;;;;;;124.32;48.65;;;17.90;99.90;;;;;;5032091;28;20029;-72
2021/07/15 09:16:25;;;;;;;105.82;44.25;;;17.90;99.90;;;;;;5034629;28;20488;-71
2021/07/15 09:19:03;;;;;;;108.93;43.58;;;17.90;99.90;;;;;;5033337;28;20029;-72
2021/07/15 09:21:37;;;;;;;105.78;42.50;;;17.80;99.90;;;;;;5033064;28;20018;-72
2021/07/15 09:24:24;;;;;;;98.78;40.08;;;17.80;99.90;;;;;;5029691;28;20030;-72
2021/07/15 09:26:50;;;;;;;100.18;41.50;;;17.70;99.90;;;;;;5032788;28;20534;-72
2021/07/15 09:29:17;;;;;;;99.68;41.92;;;17.70;99.90;;;;;;5032016;28;20030;-72
2021/07/15 09:31:55;;;;;;;103.55;41.92;;;17.80;99.90;;;;;;5033717;28;20495;-71
2021/07/15 09:34:29;;;;;;;112.30;42.92;;;17.80;99.90;;;;;;5028139;28;20373;-72
2021/07/15 09:36:56;;;;;;;111.15;44.05;;;17.70;99.90;;;;;;5033584;28;20502;-72
2021/07/15 09:39:24;;;;;;;115.65;44.70;;;17.70;99.90;;;;;;5033055;28;20372;-71
2021/07/15 09:42:20;;;;;;;112.80;44.05;;;17.70;99.90;;;;;;5032423;28;20087;-72
2021/07/15 09:44:54;;;;;;;106.47;44.03;;;17.70;99.90;;;;;;5024625;28;20503;-71
2021/07/15 09:47:40;;;;;;;101.72;43.95;;;17.70;99.90;;;;;;5034532;28;20045;-72
2021/07/15 09:50:17;;;;;;;103.45;41.40;;;17.80;99.90;;;;;;5032057;28;20507;-71
2021/07/15 09:52:46;;;;;;;111.43;43.58;;;17.80;99.90;;;;;;5031305;28;20033;-71
2021/07/15 09:55:27;;;;;;;99.85;41.13;;;17.80;99.90;;;;;;5016756;28;20022;-71
2021/07/15 09:58:07;;;;;;;106.47;43.05;;;17.80;99.90;;;;;;5033433;28;20022;-71
2021/07/15 10:00:41;;;;;;;102.97;42.22;;;17.80;99.90;;;;;;5031453;28;20034;-71
2021/07/15 10:03:08;;;;;;;91.13;42.10;;;17.90;99.90;;;;;;5026231;28;20040;-71
2021/07/15 10:05:36;;;;;;;96.18;41.10;;;17.90;99.90;;;;;;5022500;28;20038;-71
2021/07/15 10:08:06;;;;;;;96.70;39.97;;;17.90;99.90;;;;;;5019572;28;20444;-71
2021/07/15 10:10:32;;;;;;;96.57;39.78;;;18.00;99.90;;;;;;5030500;28;20033;-71
2021/07/15 10:13:15;;;;;;;90.35;38.40;;;18.00;99.90;;;;;;5021551;28;20034;-71
2021/07/15 10:15:42;;;;;;;82.22;36.30;;;18.10;99.90;;;;;;5017839;28;20044;-70
2021/07/15 10:18:08;;;;;;;84.82;37.60;;;18.10;99.90;;;;;;5031989;28;20316;-71
2021/07/15 10:20:34;;;;;;;82.47;38.25;;;18.10;99.90;;;;;;5033678;28;20018;-71
2021/07/15 10:22:59;;;;;;;84.53;36.25;;;18.10;99.90;;;;;;5033582;28;20029;-70
2021/07/15 10:25:25;;;;;;;79.60;36.20;;;18.00;99.90;;;;;;5032108;28;20083;-71
2021/07/15 10:27:51;;;;;;;78.47;37.20;;;18.00;99.90;;;;;;5027961;28;20389;-71
2021/07/15 10:30:18;;;;;;;78.90;35.65;;;18.10;99.90;;;;;;5023521;28;20044;-71
2021/07/15 10:32:44;;;;;;;80.75;36.72;;;18.10;99.90;;;;;;5026967;28;20037;-71
2021/07/15 10:35:15;;;;;;;78.13;35.75;;;18.20;99.90;;;;;;5023855;28;20037;-71
2021/07/15 10:37:45;;;;;;;83.20;36.35;;;18.30;99.90;;;;;;5026610;28;20496;-71
2021/07/15 10:40:15;;;;;;;82.10;36.05;;;18.30;99.90;;;;;;5025452;28;20036;-71
2021/07/15 10:42:40;;;;;;;75.43;35.75;;;18.30;99.90;;;;;;5027998;28;20037;-72
2021/07/15 10:45:08;;;;;;;76.72;34.70;;;18.30;99.90;;;;;;5045153;28;20040;-70
2021/07/15 10:47:36;;;;;;;73.63;34.60;;;18.20;99.90;;;;;;5025664;28;20040;-70
2021/07/15 10:50:02;;;;;;;68.70;32.80;;;18.20;99.90;;;;;;5023332;28;20496;-70
2021/07/15 10:52:29;;;;;;;67.50;32.08;;;18.20;99.90;;;;;;5020158;28;20124;-70
2021/07/15 10:54:55;;;;;;;63.83;31.60;;;18.20;99.90;;;;;;5033257;28;20472;-70
2021/07/15 10:57:22;;;;;;;74.68;32.92;;;18.20;99.90;;;;;;5021365;28;20025;-70
2021/07/15 10:59:48;;;;;;;62.35;31.10;;;18.20;99.90;;;;;;5017221;28;20116;-70
2021/07/15 11:02:23;;;;;;;68.90;31.52;;;18.20;99.90;;;;;;5022397;28;20061;-70
2021/07/15 11:04:50;;;;;;;67.38;32.22;;;18.30;99.90;;;;;;5028908;28;20038;-69
2021/07/15 11:07:29;;;;;;;68.30;33.83;;;18.30;99.90;;;;;;5030717;28;20115;-69
2021/07/15 11:10:15;;;;;;;71.32;32.97;;;18.30;99.90;;;;;;5029671;28;20026;-69
2021/07/15 11:12:53;;;;;;;77.15;36.92;;;18.30;99.90;;;;;;5027707;28;20480;-70
2021/07/15 11:15:18;;;;;;;73.93;36.35;;;18.30;99.90;;;;;;5015049;28;20113;-70
2021/07/15 11:17:50;;;;;;;83.47;37.40;;;18.30;99.90;;;;;;5023185;28;20183;-70
2021/07/15 11:20:28;;;;;;;76.68;36.47;;;18.30;99.90;;;;;;5031169;28;20052;-70
2021/07/15 11:22:58;;;;;;;84.40;39.75;;;18.30;99.90;;;;;;5032566;28;20472;-69
2021/07/15 11:25:33;;;;;;;73.25;35.83;;;18.30;99.90;;;;;;5031284;28;20384;-70
2021/07/15 11:28:02;;;;;;;72.72;32.75;;;18.30;99.90;;;;;;5030405;28;20030;-70
2021/07/15 11:30:33;;;;;;;62.00;31.17;;;18.30;99.90;;;;;;5032032;28;20037;-69
2021/07/15 11:33:23;;;;;;;60.65;29.70;;;18.30;99.90;;;;;;5031154;28;20596;-70
2021/07/15 11:35:54;;;;;;;57.92;28.73;;;18.40;99.90;;;;;;5017692;28;20051;-71
2021/07/15 11:38:25;;;;;;;54.67;26.92;;;18.50;99.90;;;;;;5031800;28;20116;-72
2021/07/15 11:40:53;;;;;;;52.72;27.05;;;18.50;99.90;;;;;;5025446;28;20040;-71
2021/07/15 11:43:26;;;;;;;52.00;28.30;;;18.50;99.90;;;;;;5029611;28;20080;-72
2021/07/15 11:46:01;;;;;;;63.08;29.23;;;18.50;99.90;;;;;;5026867;28;20506;-72
2021/07/15 11:48:45;;;;;;;60.38;29.38;;;18.40;99.90;;;;;;5029113;28;20419;-72
2021/07/15 11:51:29;;;;;;;66.45;31.20;;;18.50;99.90;;;;;;5021495;28;20395;-71
2021/07/15 11:54:25;;;;;;;66.00;30.85;;;18.50;99.90;;;;;;5032061;28;20442;-71
2021/07/15 11:56:53;;;;;;;61.72;30.98;;;18.40;99.90;;;;;;5018363;28;20099;-71
2021/07/15 11:59:56;;;;;;;70.07;33.35;;;18.40;99.90;;;;;;5031099;28;20028;-70
2021/07/15 12:02:29;;;;;;;70.05;32.47;;;18.40;99.90;;;;;;5032746;28;20031;-70
2021/07/15 12:05:28;;;;;;;64.72;32.08;;;18.50;99.90;;;;;;5032864;28;20030;-70
2021/07/15 12:08:12;;;;;;;70.63;33.67;;;18.60;99.90;;;;;;5028608;28;20030;-70
2021/07/15 12:10:43;;;;;;;74.85;37.88;;;18.60;99.90;;;;;;5036195;28;20357;-70
2021/07/15 12:13:11;;;;;;;75.30;34.28;;;18.70;99.90;;;;;;5035995;28;20087;-71
2021/07/15 12:15:39;;;;;;;71.18;33.97;;;18.70;99.90;;;;;;5036059;28;20034;-71
2021/07/15 12:18:21;;;;;;;63.13;33.15;;;18.80;99.90;;;;;;5033257;28;20052;-70
2021/07/15 12:20:58;;;;;;;69.35;34.08;;;18.70;99.90;;;;;;5036036;28;20053;-70
2021/07/15 12:23:32;;;;;;;68.15;33.35;;;18.60;99.90;;;;;;5035454;28;20025;-70
2021/07/15 12:26:01;;;;;;;63.45;32.38;;;18.60;99.90;;;;;;5035717;28;20030;-70
2021/07/15 12:28:30;;;;;;;66.93;33.05;;;18.60;99.90;;;;;;5034043;28;20096;-69
2021/07/15 12:31:01;;;;;;;64.68;33.88;;;18.60;99.90;;;;;;5035803;28;20025;-69
2021/07/15 12:33:37;;;;;;;76.20;36.85;;;18.60;99.90;;;;;;5034461;28;20380;-70